• Join FlightAware (Why Join?)
  • Login
  • US Flag 
07:24AM EDT


 

Airport Tracker/Info


-or-


 

Live Flight TrackerFlight Track Log ✈ N550BF ✈ 04-Jun-2014 ✈ KPUB - KMTJ

Flight Track Log - Related Links

Times and Time Zones

All times are in EDT time to prevent confusion due to time zone crossing. See the N550BF flight status page for this flight to view local times or setup timezone preferences in your user account.

Time Position Orientation Groundspeed Altitude Reporting Facility
EDT Latitude Longitude Course Direction KTS MPH feet Rate Location/Type
02:21PM 38.3000 -104.4333 277° West 119 137 6,500  Level Denver TRACON
02:22PM 38.2844 -104.4100 130° Southeast 124 143 7,000 720 Climbing Denver Center
02:23PM 38.2742 -104.4625 256° West 148 170 7,900 960 Climbing Denver Center
02:24PM 38.2906 -104.5147 292° West 155 178 9,000 900 Climbing Denver Center
02:25PM 38.3053 -104.5678 289° West 156 180 9,800 840 Climbing Denver Center
02:26PM 38.3140 -104.7735 277° West  Level FlightAware Approximate
02:26PM 38.3058 -104.6239 271° West 157 181 10,800  Level Denver Center
02:27PM 38.3097 -104.6775 275° West 157 181 11,600 720 Climbing Denver Center
02:28PM 38.3161 -104.7408 277° West 157 181 12,400 720 Climbing Denver Center
02:29PM 38.3186 -104.7986 273° West 157 181 13,100 720 Climbing Denver Center
02:30PM 38.3247 -104.8564 278° West 162 186 13,900 720 Climbing Denver Center
02:31PM 38.3269 -104.9144 273° West 164 189 14,700 720 Climbing Denver Center
02:32PM 38.3317 -104.9714 276° West 164 189 15,500 720 Climbing Denver Center
02:33PM 38.3339 -105.0286 273° West 164 189 16,200 660 Climbing Denver Center
02:34PM 38.3400 -105.0975 276° West 164 189 16,900 600 Climbing Denver Center
02:35PM 38.3447 -105.1564 276° West 165 190 17,500 480 Climbing Denver Center
02:36PM 38.3481 -105.2136 274° West 165 190 18,000 240 Climbing Denver Center
02:37PM 38.3514 -105.2711 274° West 164 189 18,000  Level Denver Center
02:38PM 38.3525 -105.3311 271° West 165 190 18,000  Level Denver Center
02:39PM 38.3594 -105.4011 277° West 166 191 18,000  Level Denver Center
02:41PM 38.3639 -105.4600 276° West 167 192 18,000  Level Denver Center
02:42PM 38.3675 -105.5192 274° West 166 191 18,000  Level Denver Center
02:43PM 38.3706 -105.5764 274° West 165 190 18,000  Level Denver Center
02:44PM 38.3739 -105.6372 274° West 166 191 18,000  Level Denver Center
02:45PM 38.3781 -105.6967 275° West 166 191 18,000  Level Denver Center
02:46PM 38.3814 -105.7558 274° West 167 192 18,000  Level Denver Center
02:47PM 38.3864 -105.8278 275° West 174 200 18,000  Level Denver Center
02:48PM 38.3892 -105.8850 274° West 171 197 18,000  Level Denver Center
02:49PM 38.3925 -105.9422 274° West 167 192 18,000  Level Denver Center
02:50PM 38.3953 -105.9994 274° West 165 190 18,000  Level Denver Center
02:51PM 38.3994 -106.0572 275° West 165 190 18,000  Level Denver Center
02:52PM 38.4039 -106.1311 274° West 168 193 18,000  Level Denver Center
02:53PM 38.4061 -106.1922 273° West 169 194 18,000  Level Denver Center
02:54PM 38.4111 -106.2594 275° West 184 212 18,000  Level Denver Center
02:55PM 38.4150 -106.3264 274° West 186 214 18,000  Level Denver Center
02:56PM 38.4189 -106.3928 274° West 186 214 18,000  Level Denver Center
02:57PM 38.4225 -106.4592 274° West 186 214 18,000  Level Denver Center
02:58PM 38.4256 -106.5361 273° West 185 213 18,000  Level Denver Center
02:59PM 38.4297 -106.5997 275° West 182 209 18,000  Level Denver Center
03:00PM 38.4322 -106.6592 273° West 175 201 18,000  Level Denver Center
03:01PM 38.4347 -106.7161 273° West 166 191 18,000  Level Denver Center
03:02PM 38.4375 -106.7742 274° West 165 190 18,000  Level Denver Center
03:03PM 38.4406 -106.8311 274° West 165 190 18,000  Level Denver Center
03:04PM 38.4444 -106.9003 274° West 164 189 18,000  Level Denver Center
03:05PM 38.4472 -106.9558 274° West 162 186 18,000  Level Denver Center
03:06PM 38.4492 -107.0128 273° West 160 184 18,000  Level Denver Center
03:07PM 38.4525 -107.0686 274° West 159 183 18,000  Level Denver Center
03:08PM 38.4564 -107.1250 275° West 159 183 18,000  Level Denver Center
03:09PM 38.4611 -107.1917 275° West 159 183 18,000  Level Denver Center
03:11PM 38.4647 -107.2378 276° West 154 177 18,000  Level Denver Center
03:12PM 38.4672 -107.2958 273° West 149 171 18,000 -120 Level Denver Center
03:13PM 38.4717 -107.3428 277° West 144 166 17,800 -540 Descending Denver Center
03:14PM 38.4761 -107.4072 275° West 163 188 17,000 -780 Descending Denver Center
03:15PM 38.4789 -107.4647 274° West 169 194 16,300 -780 Descending Denver Center
03:16PM 38.4836 -107.5258 276° West 157 181 15,500 -900 Descending Denver Center
03:17PM 38.4875 -107.5819 275° West 151 174 14,500 -1,020 Descending Denver Center